الصفحة الرئيسية
METAR-TAF:

METAR-TAF

مطار :

كراتشي, باكستان

مطار جناح الدولي

دائرة عرض: 24-54N, خط طول: 067-08E, ارتفاع: 21 متر

مراقبة الطقس الحالي

تاريخ ووقت الإصدار 28 دقيقة قبل الساعة 15:25UTC
ريح 7 عقدة من الغرب
درجة الحرارة 32°درجة مئوية
الرطوبة 15%
ضغط 1010 hPa
الرؤية: 6000 متر

METAR: OPKC 221525Z 26007KT 6000 NSC 32/02 Q1010 NOSIG

زمن: 20:53 (15:53 UTC)

توقعات

تاريخ ووقت الإصدار 6ساعات و 23 دقيقة قبل الساعة 09:30UTC
التوقعات صالحة من22 الساعة 12 UTC إلى 23 الساعة 18 UTC
ريح 5 عقدة من الغرب تتزايد حتى 15 عقدة
الرؤية: 6000 متر
مؤقت
من 23 الساعة 00 UTC إلى 23 الساعة 04 UTC
الرؤية: 5000 متر
العجاج
من 23 الساعة 1200 UTC
ريح 5 عقدة من الغرب/الجنوب الغربي تتزايد حتى 15 عقدة
الرؤية: 5000 متر
العجاج

TAF: OPKC 220930Z 2212/2318 27005G15KT 6000 NSC TEMPO 2300/2304 30006 5000 HZ NSC FM231200 25005G15KT 5000 HZ NSC

أرصاد الطقس والتوقعات من أكثر من 4000 مطار (تقارير الطقس للمطار METAR والتنبؤ بالطقس بالمطارTAF).

المحطات المتاحة هي النقط الصفراء والحمراء على الخريطة.

حرك المؤشر فوق النقطة لمعرفة اسم المحطة.

ثم انقر لمعرفة أرصاد وتوقعات الطقس.

لتغيير الخارطة: اضغط على الأزرار الخضراء مع رمز الصليب الأسود للتكبير. على الزر الأخضر مع شرطة للتصغير، أو على الأسهم الخضراء للخرائط المجاورة.


METAR-TAF: